sensor_id;sensor_type;location;lat;lon;timestamp;P1;durP1;ratioP1;P2;durP2;ratioP2
3343;SDS011;1685;53.104;8.228;2023-05-07T00:02:27;30.20;;;19.93;;
3343;SDS011;1685;53.104;8.228;2023-05-07T00:04:54;39.23;;;19.50;;
3343;SDS011;1685;53.104;8.228;2023-05-07T00:07:21;26.43;;;19.90;;
3343;SDS011;1685;53.104;8.228;2023-05-07T00:09:49;37.23;;;19.07;;
3343;SDS011;1685;53.104;8.228;2023-05-07T00:12:16;29.87;;;19.77;;
3343;SDS011;1685;53.104;8.228;2023-05-07T00:14:43;35.13;;;21.73;;
3343;SDS011;1685;53.104;8.228;2023-05-07T00:17:10;36.97;;;20.87;;
3343;SDS011;1685;53.104;8.228;2023-05-07T00:19:38;29.30;;;18.83;;
3343;SDS011;1685;53.104;8.228;2023-05-07T00:22:05;32.20;;;19.97;;
3343;SDS011;1685;53.104;8.228;2023-05-07T00:24:32;29.87;;;20.73;;
3343;SDS011;1685;53.104;8.228;2023-05-07T00:26:59;32.03;;;19.80;;
3343;SDS011;1685;53.104;8.228;2023-05-07T00:29:26;31.40;;;19.73;;
3343;SDS011;1685;53.104;8.228;2023-05-07T00:31:53;28.77;;;20.00;;
3343;SDS011;1685;53.104;8.228;2023-05-07T00:34:21;31.97;;;21.93;;
3343;SDS011;1685;53.104;8.228;2023-05-07T00:36:49;32.80;;;19.83;;
3343;SDS011;1685;53.104;8.228;2023-05-07T00:39:16;37.50;;;20.73;;
3343;SDS011;1685;53.104;8.228;2023-05-07T00:41:43;31.77;;;18.70;;
3343;SDS011;1685;53.104;8.228;2023-05-07T00:44:11;29.23;;;21.00;;
3343;SDS011;1685;53.104;8.228;2023-05-07T00:46:38;29.43;;;20.50;;
3343;SDS011;1685;53.104;8.228;2023-05-07T00:49:05;36.27;;;21.93;;
3343;SDS011;1685;53.104;8.228;2023-05-07T00:51:32;28.40;;;19.77;;
3343;SDS011;1685;53.104;8.228;2023-05-07T00:54:01;29.20;;;19.57;;
3343;SDS011;1685;53.104;8.228;2023-05-07T00:56:28;26.67;;;20.07;;
3343;SDS011;1685;53.104;8.228;2023-05-07T00:58:56;31.73;;;20.23;;
3343;SDS011;1685;53.104;8.228;2023-05-07T01:01:23;33.23;;;21.50;;
3343;SDS011;1685;53.104;8.228;2023-05-07T01:03:50;32.20;;;21.30;;
3343;SDS011;1685;53.104;8.228;2023-05-07T01:06:17;24.60;;;19.90;;
3343;SDS011;1685;53.104;8.228;2023-05-07T01:08:45;30.83;;;21.10;;
3343;SDS011;1685;53.104;8.228;2023-05-07T01:11:13;28.33;;;19.50;;
3343;SDS011;1685;53.104;8.228;2023-05-07T01:13:41;31.93;;;20.73;;
3343;SDS011;1685;53.104;8.228;2023-05-07T01:16:08;27.40;;;19.63;;
3343;SDS011;1685;53.104;8.228;2023-05-07T01:18:35;30.53;;;19.50;;
3343;SDS011;1685;53.104;8.228;2023-05-07T01:21:03;28.17;;;18.50;;
3343;SDS011;1685;53.104;8.228;2023-05-07T01:23:32;27.87;;;18.80;;
3343;SDS011;1685;53.104;8.228;2023-05-07T01:26:01;27.40;;;17.77;;
3343;SDS011;1685;53.104;8.228;2023-05-07T01:28:28;26.60;;;17.93;;
3343;SDS011;1685;53.104;8.228;2023-05-07T01:30:56;26.23;;;19.20;;
3343;SDS011;1685;53.104;8.228;2023-05-07T01:33:27;29.00;;;20.40;;
3343;SDS011;1685;53.104;8.228;2023-05-07T01:35:57;29.23;;;18.50;;
3343;SDS011;1685;53.104;8.228;2023-05-07T01:38:27;28.63;;;19.57;;
3343;SDS011;1685;53.104;8.228;2023-05-07T01:40:57;27.30;;;20.00;;
3343;SDS011;1685;53.104;8.228;2023-05-07T01:43:24;28.80;;;19.30;;
3343;SDS011;1685;53.104;8.228;2023-05-07T01:45:51;25.13;;;17.70;;
3343;SDS011;1685;53.104;8.228;2023-05-07T01:48:19;28.83;;;21.13;;
3343;SDS011;1685;53.104;8.228;2023-05-07T01:50:46;28.60;;;19.50;;
3343;SDS011;1685;53.104;8.228;2023-05-07T01:53:13;31.27;;;18.90;;
3343;SDS011;1685;53.104;8.228;2023-05-07T01:55:41;28.33;;;18.20;;
3343;SDS011;1685;53.104;8.228;2023-05-07T01:58:09;25.43;;;19.00;;
3343;SDS011;1685;53.104;8.228;2023-05-07T02:00:36;25.40;;;19.23;;
3343;SDS011;1685;53.104;8.228;2023-05-07T02:03:03;26.90;;;20.73;;
3343;SDS011;1685;53.104;8.228;2023-05-07T02:05:30;25.93;;;18.73;;
3343;SDS011;1685;53.104;8.228;2023-05-07T02:07:57;27.57;;;18.97;;
3343;SDS011;1685;53.104;8.228;2023-05-07T02:10:25;23.80;;;19.20;;
3343;SDS011;1685;53.104;8.228;2023-05-07T02:12:52;27.87;;;19.13;;
3343;SDS011;1685;53.104;8.228;2023-05-07T02:15:20;23.77;;;18.50;;
3343;SDS011;1685;53.104;8.228;2023-05-07T02:17:57;24.17;;;17.07;;
3343;SDS011;1685;53.104;8.228;2023-05-07T02:20:25;21.67;;;16.17;;
3343;SDS011;1685;53.104;8.228;2023-05-07T02:22:52;22.40;;;16.60;;
3343;SDS011;1685;53.104;8.228;2023-05-07T02:25:19;25.40;;;16.40;;
3343;SDS011;1685;53.104;8.228;2023-05-07T02:27:46;24.43;;;17.07;;
3343;SDS011;1685;53.104;8.228;2023-05-07T02:30:13;26.03;;;17.33;;
3343;SDS011;1685;53.104;8.228;2023-05-07T02:32:42;24.53;;;17.33;;
3343;SDS011;1685;53.104;8.228;2023-05-07T02:35:09;24.47;;;16.70;;
3343;SDS011;1685;53.104;8.228;2023-05-07T02:37:36;21.63;;;16.23;;
3343;SDS011;1685;53.104;8.228;2023-05-07T02:40:03;25.93;;;18.50;;
3343;SDS011;1685;53.104;8.228;2023-05-07T02:42:31;23.63;;;17.73;;
3343;SDS011;1685;53.104;8.228;2023-05-07T02:44:58;21.43;;;16.37;;
3343;SDS011;1685;53.104;8.228;2023-05-07T02:47:25;22.20;;;15.60;;
3343;SDS011;1685;53.104;8.228;2023-05-07T02:49:55;21.43;;;16.40;;
3343;SDS011;1685;53.104;8.228;2023-05-07T02:52:21;21.40;;;17.17;;
3343;SDS011;1685;53.104;8.228;2023-05-07T02:54:49;27.30;;;15.17;;
3343;SDS011;1685;53.104;8.228;2023-05-07T02:57:16;22.80;;;16.13;;
3343;SDS011;1685;53.104;8.228;2023-05-07T02:59:43;20.57;;;15.90;;
3343;SDS011;1685;53.104;8.228;2023-05-07T03:02:10;22.67;;;16.40;;
3343;SDS011;1685;53.104;8.228;2023-05-07T03:04:37;20.10;;;15.50;;
3343;SDS011;1685;53.104;8.228;2023-05-07T03:07:05;23.50;;;15.23;;
3343;SDS011;1685;53.104;8.228;2023-05-07T03:09:32;21.40;;;15.70;;
3343;SDS011;1685;53.104;8.228;2023-05-07T03:11:59;32.83;;;17.20;;
3343;SDS011;1685;53.104;8.228;2023-05-07T03:14:26;22.90;;;16.27;;
3343;SDS011;1685;53.104;8.228;2023-05-07T03:16:53;26.13;;;16.53;;
3343;SDS011;1685;53.104;8.228;2023-05-07T03:19:20;23.47;;;16.80;;
3343;SDS011;1685;53.104;8.228;2023-05-07T03:21:47;27.80;;;18.70;;
3343;SDS011;1685;53.104;8.228;2023-05-07T03:24:16;23.70;;;17.40;;
3343;SDS011;1685;53.104;8.228;2023-05-07T03:26:42;22.10;;;14.70;;
3343;SDS011;1685;53.104;8.228;2023-05-07T03:29:10;24.27;;;16.80;;
3343;SDS011;1685;53.104;8.228;2023-05-07T03:31:37;28.17;;;17.80;;
3343;SDS011;1685;53.104;8.228;2023-05-07T03:34:04;31.00;;;17.67;;
3343;SDS011;1685;53.104;8.228;2023-05-07T03:36:31;23.67;;;16.30;;
3343;SDS011;1685;53.104;8.228;2023-05-07T03:38:58;27.00;;;16.00;;
3343;SDS011;1685;53.104;8.228;2023-05-07T03:41:26;25.43;;;15.90;;
3343;SDS011;1685;53.104;8.228;2023-05-07T03:43:54;23.90;;;16.50;;
3343;SDS011;1685;53.104;8.228;2023-05-07T03:46:21;24.10;;;15.63;;
3343;SDS011;1685;53.104;8.228;2023-05-07T03:48:51;25.80;;;16.97;;
3343;SDS011;1685;53.104;8.228;2023-05-07T03:51:18;26.23;;;17.27;;
3343;SDS011;1685;53.104;8.228;2023-05-07T03:53:45;22.73;;;15.40;;
3343;SDS011;1685;53.104;8.228;2023-05-07T03:56:12;23.20;;;17.20;;
3343;SDS011;1685;53.104;8.228;2023-05-07T03:58:40;24.80;;;17.93;;
3343;SDS011;1685;53.104;8.228;2023-05-07T04:01:07;27.80;;;16.67;;
3343;SDS011;1685;53.104;8.228;2023-05-07T04:03:34;26.10;;;17.30;;
3343;SDS011;1685;53.104;8.228;2023-05-07T04:06:01;26.13;;;17.13;;
3343;SDS011;1685;53.104;8.228;2023-05-07T04:08:28;25.77;;;17.37;;
3343;SDS011;1685;53.104;8.228;2023-05-07T04:10:56;27.33;;;16.97;;
3343;SDS011;1685;53.104;8.228;2023-05-07T04:13:23;25.00;;;16.47;;
3343;SDS011;1685;53.104;8.228;2023-05-07T04:15:51;26.97;;;17.60;;
3343;SDS011;1685;53.104;8.228;2023-05-07T04:18:18;26.33;;;16.43;;
3343;SDS011;1685;53.104;8.228;2023-05-07T04:20:46;32.33;;;16.80;;
3343;SDS011;1685;53.104;8.228;2023-05-07T04:23:14;27.03;;;16.17;;
3343;SDS011;1685;53.104;8.228;2023-05-07T04:25:41;24.23;;;16.03;;
3343;SDS011;1685;53.104;8.228;2023-05-07T04:28:08;24.27;;;14.90;;
3343;SDS011;1685;53.104;8.228;2023-05-07T04:30:36;23.20;;;15.90;;
3343;SDS011;1685;53.104;8.228;2023-05-07T04:33:04;20.70;;;15.93;;
3343;SDS011;1685;53.104;8.228;2023-05-07T04:35:31;26.90;;;16.27;;
3343;SDS011;1685;53.104;8.228;2023-05-07T04:37:58;24.10;;;15.87;;
3343;SDS011;1685;53.104;8.228;2023-05-07T04:40:26;26.70;;;17.10;;
3343;SDS011;1685;53.104;8.228;2023-05-07T04:42:53;25.00;;;15.20;;
3343;SDS011;1685;53.104;8.228;2023-05-07T04:45:20;23.70;;;15.90;;
3343;SDS011;1685;53.104;8.228;2023-05-07T04:47:48;26.63;;;16.40;;
3343;SDS011;1685;53.104;8.228;2023-05-07T04:50:16;23.73;;;17.13;;
3343;SDS011;1685;53.104;8.228;2023-05-07T04:52:44;24.37;;;16.37;;
3343;SDS011;1685;53.104;8.228;2023-05-07T04:55:11;25.57;;;16.90;;
3343;SDS011;1685;53.104;8.228;2023-05-07T04:57:38;24.20;;;15.43;;
3343;SDS011;1685;53.104;8.228;2023-05-07T05:00:06;28.47;;;16.40;;
3343;SDS011;1685;53.104;8.228;2023-05-07T05:02:35;32.07;;;18.10;;
3343;SDS011;1685;53.104;8.228;2023-05-07T05:05:02;22.93;;;16.20;;
3343;SDS011;1685;53.104;8.228;2023-05-07T05:07:30;25.27;;;16.93;;
3343;SDS011;1685;53.104;8.228;2023-05-07T05:09:57;25.50;;;16.43;;
3343;SDS011;1685;53.104;8.228;2023-05-07T05:12:24;23.87;;;16.40;;
3343;SDS011;1685;53.104;8.228;2023-05-07T05:14:51;27.80;;;18.27;;
3343;SDS011;1685;53.104;8.228;2023-05-07T05:17:18;28.53;;;18.37;;
3343;SDS011;1685;53.104;8.228;2023-05-07T05:19:45;26.30;;;17.33;;
3343;SDS011;1685;53.104;8.228;2023-05-07T05:22:12;24.97;;;16.70;;
3343;SDS011;1685;53.104;8.228;2023-05-07T05:24:41;27.83;;;17.93;;
3343;SDS011;1685;53.104;8.228;2023-05-07T05:27:08;27.90;;;18.30;;
3343;SDS011;1685;53.104;8.228;2023-05-07T05:29:35;31.83;;;20.10;;
3343;SDS011;1685;53.104;8.228;2023-05-07T05:32:02;25.33;;;18.30;;
3343;SDS011;1685;53.104;8.228;2023-05-07T05:34:29;28.67;;;17.93;;
3343;SDS011;1685;53.104;8.228;2023-05-07T05:36:58;25.53;;;17.90;;
3343;SDS011;1685;53.104;8.228;2023-05-07T05:39:25;29.63;;;18.37;;
3343;SDS011;1685;53.104;8.228;2023-05-07T05:41:54;28.40;;;18.87;;
3343;SDS011;1685;53.104;8.228;2023-05-07T05:44:20;27.50;;;17.73;;
3343;SDS011;1685;53.104;8.228;2023-05-07T05:46:47;28.00;;;18.20;;
3343;SDS011;1685;53.104;8.228;2023-05-07T05:49:15;27.47;;;17.40;;
3343;SDS011;1685;53.104;8.228;2023-05-07T05:51:42;24.10;;;17.57;;
3343;SDS011;1685;53.104;8.228;2023-05-07T05:54:09;24.53;;;17.23;;
3343;SDS011;1685;53.104;8.228;2023-05-07T05:56:36;22.07;;;16.10;;
3343;SDS011;1685;53.104;8.228;2023-05-07T05:59:05;24.37;;;15.73;;
3343;SDS011;1685;53.104;8.228;2023-05-07T06:01:32;21.97;;;15.20;;
3343;SDS011;1685;53.104;8.228;2023-05-07T06:03:59;24.57;;;16.10;;
3343;SDS011;1685;53.104;8.228;2023-05-07T06:06:26;21.77;;;15.40;;
3343;SDS011;1685;53.104;8.228;2023-05-07T06:08:53;19.33;;;15.07;;
3343;SDS011;1685;53.104;8.228;2023-05-07T06:11:20;24.67;;;16.00;;
3343;SDS011;1685;53.104;8.228;2023-05-07T06:13:47;25.57;;;15.60;;
3343;SDS011;1685;53.104;8.228;2023-05-07T06:16:16;23.97;;;16.57;;
3343;SDS011;1685;53.104;8.228;2023-05-07T06:18:42;19.83;;;15.00;;
3343;SDS011;1685;53.104;8.228;2023-05-07T06:21:10;21.07;;;15.70;;
3343;SDS011;1685;53.104;8.228;2023-05-07T06:23:37;19.87;;;14.00;;
3343;SDS011;1685;53.104;8.228;2023-05-07T06:26:05;18.70;;;14.03;;
3343;SDS011;1685;53.104;8.228;2023-05-07T06:28:32;18.30;;;13.80;;
3343;SDS011;1685;53.104;8.228;2023-05-07T06:31:10;17.67;;;13.10;;
3343;SDS011;1685;53.104;8.228;2023-05-07T06:33:39;18.10;;;12.67;;
3343;SDS011;1685;53.104;8.228;2023-05-07T06:36:06;25.87;;;15.30;;
3343;SDS011;1685;53.104;8.228;2023-05-07T06:38:33;18.87;;;13.80;;
3343;SDS011;1685;53.104;8.228;2023-05-07T06:41:00;18.83;;;13.17;;
3343;SDS011;1685;53.104;8.228;2023-05-07T06:43:27;22.00;;;14.33;;
3343;SDS011;1685;53.104;8.228;2023-05-07T06:45:54;19.17;;;13.53;;
3343;SDS011;1685;53.104;8.228;2023-05-07T06:48:21;16.10;;;12.80;;
3343;SDS011;1685;53.104;8.228;2023-05-07T06:50:50;19.53;;;13.83;;
3343;SDS011;1685;53.104;8.228;2023-05-07T06:53:16;15.37;;;12.73;;
3343;SDS011;1685;53.104;8.228;2023-05-07T06:55:43;21.43;;;13.60;;
3343;SDS011;1685;53.104;8.228;2023-05-07T06:58:10;16.53;;;13.00;;
3343;SDS011;1685;53.104;8.228;2023-05-07T07:00:37;15.50;;;12.80;;
3343;SDS011;1685;53.104;8.228;2023-05-07T07:03:05;15.73;;;12.83;;
3343;SDS011;1685;53.104;8.228;2023-05-07T07:05:32;23.37;;;14.07;;
3343;SDS011;1685;53.104;8.228;2023-05-07T07:08:01;18.40;;;13.50;;
3343;SDS011;1685;53.104;8.228;2023-05-07T07:10:28;17.10;;;13.00;;
3343;SDS011;1685;53.104;8.228;2023-05-07T07:12:55;17.30;;;13.40;;
3343;SDS011;1685;53.104;8.228;2023-05-07T07:15:24;18.27;;;13.40;;
3343;SDS011;1685;53.104;8.228;2023-05-07T07:17:51;14.93;;;12.20;;
3343;SDS011;1685;53.104;8.228;2023-05-07T07:20:18;15.70;;;12.10;;
3343;SDS011;1685;53.104;8.228;2023-05-07T07:22:45;17.73;;;12.90;;
3343;SDS011;1685;53.104;8.228;2023-05-07T07:25:13;17.00;;;13.07;;
3343;SDS011;1685;53.104;8.228;2023-05-07T07:27:40;16.57;;;12.20;;
3343;SDS011;1685;53.104;8.228;2023-05-07T07:30:07;15.73;;;12.70;;
3343;SDS011;1685;53.104;8.228;2023-05-07T07:32:35;15.60;;;12.10;;
3343;SDS011;1685;53.104;8.228;2023-05-07T07:35:02;15.03;;;12.00;;
3343;SDS011;1685;53.104;8.228;2023-05-07T07:37:29;13.93;;;11.60;;
3343;SDS011;1685;53.104;8.228;2023-05-07T07:39:56;16.97;;;12.50;;
3343;SDS011;1685;53.104;8.228;2023-05-07T07:42:25;17.27;;;11.80;;
3343;SDS011;1685;53.104;8.228;2023-05-07T07:44:52;16.27;;;12.63;;
3343;SDS011;1685;53.104;8.228;2023-05-07T07:47:19;15.40;;;12.60;;
3343;SDS011;1685;53.104;8.228;2023-05-07T07:49:46;16.03;;;11.70;;
3343;SDS011;1685;53.104;8.228;2023-05-07T07:52:13;14.60;;;12.70;;
3343;SDS011;1685;53.104;8.228;2023-05-07T07:54:40;15.60;;;11.53;;
3343;SDS011;1685;53.104;8.228;2023-05-07T07:57:08;17.40;;;12.47;;
3343;SDS011;1685;53.104;8.228;2023-05-07T07:59:36;14.40;;;11.37;;
3343;SDS011;1685;53.104;8.228;2023-05-07T08:02:03;18.83;;;13.20;;
3343;SDS011;1685;53.104;8.228;2023-05-07T08:04:30;15.17;;;12.30;;
3343;SDS011;1685;53.104;8.228;2023-05-07T08:06:58;14.20;;;11.37;;
3343;SDS011;1685;53.104;8.228;2023-05-07T08:09:25;16.53;;;14.17;;
3343;SDS011;1685;53.104;8.228;2023-05-07T08:11:52;14.60;;;12.80;;
3343;SDS011;1685;53.104;8.228;2023-05-07T08:14:19;12.33;;;10.70;;
3343;SDS011;1685;53.104;8.228;2023-05-07T08:16:48;16.37;;;13.13;;
3343;SDS011;1685;53.104;8.228;2023-05-07T08:19:15;12.43;;;10.13;;
3343;SDS011;1685;53.104;8.228;2023-05-07T08:21:42;14.80;;;12.70;;
3343;SDS011;1685;53.104;8.228;2023-05-07T08:24:09;15.80;;;12.13;;
3343;SDS011;1685;53.104;8.228;2023-05-07T08:26:36;13.50;;;11.40;;
3343;SDS011;1685;53.104;8.228;2023-05-07T08:29:04;13.80;;;11.63;;
3343;SDS011;1685;53.104;8.228;2023-05-07T08:31:31;12.93;;;10.90;;
3343;SDS011;1685;53.104;8.228;2023-05-07T08:33:59;16.60;;;13.10;;
3343;SDS011;1685;53.104;8.228;2023-05-07T08:36:26;15.10;;;12.00;;
3343;SDS011;1685;53.104;8.228;2023-05-07T08:38:53;14.93;;;12.37;;
3343;SDS011;1685;53.104;8.228;2023-05-07T08:41:20;13.80;;;12.23;;
3343;SDS011;1685;53.104;8.228;2023-05-07T08:43:48;13.00;;;11.00;;
3343;SDS011;1685;53.104;8.228;2023-05-07T08:46:16;14.40;;;11.70;;
3343;SDS011;1685;53.104;8.228;2023-05-07T08:48:44;14.50;;;12.30;;
3343;SDS011;1685;53.104;8.228;2023-05-07T08:51:13;14.47;;;11.90;;
3343;SDS011;1685;53.104;8.228;2023-05-07T08:53:42;12.87;;;11.20;;
3343;SDS011;1685;53.104;8.228;2023-05-07T08:56:09;12.17;;;10.90;;
3343;SDS011;1685;53.104;8.228;2023-05-07T08:58:36;14.30;;;12.57;;
3343;SDS011;1685;53.104;8.228;2023-05-07T09:01:05;13.23;;;11.83;;
3343;SDS011;1685;53.104;8.228;2023-05-07T09:03:34;15.90;;;11.60;;
3343;SDS011;1685;53.104;8.228;2023-05-07T09:06:01;13.00;;;11.60;;
3343;SDS011;1685;53.104;8.228;2023-05-07T09:08:31;15.70;;;11.50;;
3343;SDS011;1685;53.104;8.228;2023-05-07T09:10:59;18.77;;;11.67;;
3343;SDS011;1685;53.104;8.228;2023-05-07T09:13:26;13.87;;;11.57;;
3343;SDS011;1685;53.104;8.228;2023-05-07T09:15:54;13.83;;;11.83;;
3343;SDS011;1685;53.104;8.228;2023-05-07T09:18:21;14.23;;;11.70;;
3343;SDS011;1685;53.104;8.228;2023-05-07T09:20:50;13.93;;;12.30;;
3343;SDS011;1685;53.104;8.228;2023-05-07T09:23:17;15.13;;;11.00;;
3343;SDS011;1685;53.104;8.228;2023-05-07T09:25:45;11.83;;;10.60;;
3343;SDS011;1685;53.104;8.228;2023-05-07T09:28:12;13.80;;;10.50;;
3343;SDS011;1685;53.104;8.228;2023-05-07T09:30:39;12.00;;;10.63;;
3343;SDS011;1685;53.104;8.228;2023-05-07T09:33:06;11.50;;;10.17;;
3343;SDS011;1685;53.104;8.228;2023-05-07T09:35:33;12.27;;;10.90;;
3343;SDS011;1685;53.104;8.228;2023-05-07T09:38:00;12.00;;;10.03;;
3343;SDS011;1685;53.104;8.228;2023-05-07T09:40:28;11.63;;;10.33;;
3343;SDS011;1685;53.104;8.228;2023-05-07T09:43:07;12.23;;;10.67;;
3343;SDS011;1685;53.104;8.228;2023-05-07T09:45:36;11.10;;;10.00;;
3343;SDS011;1685;53.104;8.228;2023-05-07T09:48:04;16.43;;;9.60;;
3343;SDS011;1685;53.104;8.228;2023-05-07T09:50:32;13.10;;;10.47;;
3343;SDS011;1685;53.104;8.228;2023-05-07T09:53:02;11.70;;;10.57;;
3343;SDS011;1685;53.104;8.228;2023-05-07T09:55:29;10.50;;;9.23;;
3343;SDS011;1685;53.104;8.228;2023-05-07T09:57:58;11.00;;;9.83;;
3343;SDS011;1685;53.104;8.228;2023-05-07T10:00:27;12.37;;;11.07;;
3343;SDS011;1685;53.104;8.228;2023-05-07T10:02:56;11.17;;;9.83;;
3343;SDS011;1685;53.104;8.228;2023-05-07T10:05:24;11.33;;;9.20;;
3343;SDS011;1685;53.104;8.228;2023-05-07T10:07:52;12.33;;;10.97;;
3343;SDS011;1685;53.104;8.228;2023-05-07T10:10:20;10.57;;;9.53;;
3343;SDS011;1685;53.104;8.228;2023-05-07T10:12:47;10.20;;;9.20;;
3343;SDS011;1685;53.104;8.228;2023-05-07T10:15:17;11.50;;;10.40;;
3343;SDS011;1685;53.104;8.228;2023-05-07T10:17:44;11.23;;;10.03;;
3343;SDS011;1685;53.104;8.228;2023-05-07T10:20:11;10.83;;;9.73;;
3343;SDS011;1685;53.104;8.228;2023-05-07T10:22:40;11.13;;;9.93;;
3343;SDS011;1685;53.104;8.228;2023-05-07T10:25:11;10.90;;;9.80;;
3343;SDS011;1685;53.104;8.228;2023-05-07T10:27:40;11.40;;;10.20;;
3343;SDS011;1685;53.104;8.228;2023-05-07T10:30:12;9.70;;;8.80;;
3343;SDS011;1685;53.104;8.228;2023-05-07T10:32:48;10.00;;;9.00;;
3343;SDS011;1685;53.104;8.228;2023-05-07T10:35:17;9.93;;;8.50;;
3343;SDS011;1685;53.104;8.228;2023-05-07T10:37:47;10.73;;;9.63;;
3343;SDS011;1685;53.104;8.228;2023-05-07T10:40:14;10.07;;;9.07;;
3343;SDS011;1685;53.104;8.228;2023-05-07T10:45:27;10.80;;;9.70;;
3343;SDS011;1685;53.104;8.228;2023-05-07T10:50:42;10.00;;;8.90;;
3343;SDS011;1685;53.104;8.228;2023-05-07T10:53:20;10.20;;;9.10;;
3343;SDS011;1685;53.104;8.228;2023-05-07T10:55:49;9.90;;;8.90;;
3343;SDS011;1685;53.104;8.228;2023-05-07T10:58:24;10.43;;;9.20;;
3343;SDS011;1685;53.104;8.228;2023-05-07T11:00:55;10.53;;;9.20;;
3343;SDS011;1685;53.104;8.228;2023-05-07T11:03:23;12.20;;;9.83;;
3343;SDS011;1685;53.104;8.228;2023-05-07T11:06:08;10.27;;;9.10;;
3343;SDS011;1685;53.104;8.228;2023-05-07T11:11:44;11.13;;;10.00;;
3343;SDS011;1685;53.104;8.228;2023-05-07T11:14:11;24.10;;;11.20;;
3343;SDS011;1685;53.104;8.228;2023-05-07T11:16:41;11.47;;;9.80;;
3343;SDS011;1685;53.104;8.228;2023-05-07T11:19:09;10.30;;;9.27;;
3343;SDS011;1685;53.104;8.228;2023-05-07T11:21:36;11.27;;;10.17;;
3343;SDS011;1685;53.104;8.228;2023-05-07T11:24:05;12.77;;;9.80;;
3343;SDS011;1685;53.104;8.228;2023-05-07T11:26:45;11.40;;;10.30;;
3343;SDS011;1685;53.104;8.228;2023-05-07T11:29:15;10.43;;;9.43;;
3343;SDS011;1685;53.104;8.228;2023-05-07T11:31:44;9.70;;;8.70;;
3343;SDS011;1685;53.104;8.228;2023-05-07T11:34:15;11.17;;;9.63;;
3343;SDS011;1685;53.104;8.228;2023-05-07T11:36:47;10.30;;;9.30;;
3343;SDS011;1685;53.104;8.228;2023-05-07T11:39:24;11.10;;;9.93;;
3343;SDS011;1685;53.104;8.228;2023-05-07T11:41:51;11.30;;;10.10;;
3343;SDS011;1685;53.104;8.228;2023-05-07T11:44:18;13.20;;;9.97;;
3343;SDS011;1685;53.104;8.228;2023-05-07T11:46:47;12.07;;;10.00;;
3343;SDS011;1685;53.104;8.228;2023-05-07T11:49:15;11.60;;;10.40;;
3343;SDS011;1685;53.104;8.228;2023-05-07T11:51:42;12.43;;;11.03;;
3343;SDS011;1685;53.104;8.228;2023-05-07T11:54:11;12.40;;;10.90;;
3343;SDS011;1685;53.104;8.228;2023-05-07T11:56:39;11.10;;;9.87;;
3343;SDS011;1685;53.104;8.228;2023-05-07T11:59:06;12.10;;;10.80;;
3343;SDS011;1685;53.104;8.228;2023-05-07T12:01:34;11.23;;;9.97;;
3343;SDS011;1685;53.104;8.228;2023-05-07T12:04:04;12.87;;;11.43;;
3343;SDS011;1685;53.104;8.228;2023-05-07T12:06:31;10.77;;;9.77;;
3343;SDS011;1685;53.104;8.228;2023-05-07T12:08:58;13.00;;;10.63;;
3343;SDS011;1685;53.104;8.228;2023-05-07T12:11:25;12.90;;;11.43;;
3343;SDS011;1685;53.104;8.228;2023-05-07T12:13:53;15.50;;;10.23;;
3343;SDS011;1685;53.104;8.228;2023-05-07T12:16:20;11.40;;;10.20;;
3343;SDS011;1685;53.104;8.228;2023-05-07T12:18:47;11.00;;;9.80;;
3343;SDS011;1685;53.104;8.228;2023-05-07T12:21:16;21.63;;;11.37;;
3343;SDS011;1685;53.104;8.228;2023-05-07T12:23:43;11.33;;;10.23;;
3343;SDS011;1685;53.104;8.228;2023-05-07T12:26:10;12.20;;;11.00;;
3343;SDS011;1685;53.104;8.228;2023-05-07T12:28:38;10.77;;;9.77;;
3343;SDS011;1685;53.104;8.228;2023-05-07T12:31:05;13.63;;;11.23;;
3343;SDS011;1685;53.104;8.228;2023-05-07T12:33:35;12.20;;;10.87;;
3343;SDS011;1685;53.104;8.228;2023-05-07T12:36:03;15.60;;;10.37;;
3343;SDS011;1685;53.104;8.228;2023-05-07T12:38:37;13.10;;;10.83;;
3343;SDS011;1685;53.104;8.228;2023-05-07T12:41:05;12.13;;;10.60;;
3343;SDS011;1685;53.104;8.228;2023-05-07T12:43:33;12.83;;;11.37;;
3343;SDS011;1685;53.104;8.228;2023-05-07T12:46:00;13.73;;;11.67;;
3343;SDS011;1685;53.104;8.228;2023-05-07T12:48:30;13.83;;;10.90;;
3343;SDS011;1685;53.104;8.228;2023-05-07T12:50:58;11.90;;;10.57;;
3343;SDS011;1685;53.104;8.228;2023-05-07T12:53:26;11.40;;;10.30;;
3343;SDS011;1685;53.104;8.228;2023-05-07T12:55:56;13.30;;;11.43;;
3343;SDS011;1685;53.104;8.228;2023-05-07T12:58:24;12.83;;;11.30;;
3343;SDS011;1685;53.104;8.228;2023-05-07T13:00:52;11.87;;;10.67;;
3343;SDS011;1685;53.104;8.228;2023-05-07T13:03:23;11.10;;;9.90;;
3343;SDS011;1685;53.104;8.228;2023-05-07T13:05:51;13.43;;;9.20;;
3343;SDS011;1685;53.104;8.228;2023-05-07T13:08:28;11.70;;;9.90;;
3343;SDS011;1685;53.104;8.228;2023-05-07T13:10:58;11.57;;;10.37;;
3343;SDS011;1685;53.104;8.228;2023-05-07T13:13:28;12.00;;;10.70;;
3343;SDS011;1685;53.104;8.228;2023-05-07T13:15:55;11.13;;;10.03;;
3343;SDS011;1685;53.104;8.228;2023-05-07T13:18:23;12.70;;;8.17;;
3343;SDS011;1685;53.104;8.228;2023-05-07T13:20:50;9.73;;;8.83;;
3343;SDS011;1685;53.104;8.228;2023-05-07T13:23:17;10.30;;;9.30;;
3343;SDS011;1685;53.104;8.228;2023-05-07T13:25:44;11.83;;;8.80;;
3343;SDS011;1685;53.104;8.228;2023-05-07T13:28:13;9.20;;;8.20;;
3343;SDS011;1685;53.104;8.228;2023-05-07T13:30:40;12.53;;;9.07;;
3343;SDS011;1685;53.104;8.228;2023-05-07T13:33:07;9.87;;;8.83;;
3343;SDS011;1685;53.104;8.228;2023-05-07T13:35:34;9.27;;;8.37;;
3343;SDS011;1685;53.104;8.228;2023-05-07T13:38:01;9.70;;;8.43;;
3343;SDS011;1685;53.104;8.228;2023-05-07T13:40:28;9.03;;;7.90;;
3343;SDS011;1685;53.104;8.228;2023-05-07T13:42:56;12.73;;;8.03;;
3343;SDS011;1685;53.104;8.228;2023-05-07T13:45:27;8.30;;;7.50;;
3343;SDS011;1685;53.104;8.228;2023-05-07T13:47:54;8.87;;;7.43;;
3343;SDS011;1685;53.104;8.228;2023-05-07T13:50:21;8.33;;;7.53;;
3343;SDS011;1685;53.104;8.228;2023-05-07T13:52:49;8.73;;;7.93;;
3343;SDS011;1685;53.104;8.228;2023-05-07T13:55:16;8.20;;;7.50;;
3343;SDS011;1685;53.104;8.228;2023-05-07T13:57:43;9.60;;;7.87;;
3343;SDS011;1685;53.104;8.228;2023-05-07T14:00:11;10.77;;;7.70;;
3343;SDS011;1685;53.104;8.228;2023-05-07T14:02:39;8.60;;;7.70;;
3343;SDS011;1685;53.104;8.228;2023-05-07T14:05:06;11.17;;;8.47;;
3343;SDS011;1685;53.104;8.228;2023-05-07T14:07:34;9.10;;;8.20;;
3343;SDS011;1685;53.104;8.228;2023-05-07T14:10:01;8.80;;;8.03;;
3343;SDS011;1685;53.104;8.228;2023-05-07T14:12:29;9.40;;;8.43;;
3343;SDS011;1685;53.104;8.228;2023-05-07T14:14:56;7.83;;;7.13;;
3343;SDS011;1685;53.104;8.228;2023-05-07T14:17:23;9.83;;;8.80;;
3343;SDS011;1685;53.104;8.228;2023-05-07T14:19:53;8.53;;;7.80;;
3343;SDS011;1685;53.104;8.228;2023-05-07T14:22:20;8.87;;;8.07;;
3343;SDS011;1685;53.104;8.228;2023-05-07T14:24:47;10.13;;;7.27;;
3343;SDS011;1685;53.104;8.228;2023-05-07T14:27:14;8.43;;;7.57;;
3343;SDS011;1685;53.104;8.228;2023-05-07T14:29:41;8.43;;;7.60;;
3343;SDS011;1685;53.104;8.228;2023-05-07T14:32:10;9.70;;;8.70;;
3343;SDS011;1685;53.104;8.228;2023-05-07T14:34:37;12.03;;;7.40;;
3343;SDS011;1685;53.104;8.228;2023-05-07T14:37:06;8.37;;;7.47;;
3343;SDS011;1685;53.104;8.228;2023-05-07T14:39:32;8.20;;;7.40;;
3343;SDS011;1685;53.104;8.228;2023-05-07T14:41:59;7.43;;;6.83;;
3343;SDS011;1685;53.104;8.228;2023-05-07T14:44:26;7.40;;;6.70;;
3343;SDS011;1685;53.104;8.228;2023-05-07T14:46:53;6.60;;;6.00;;
3343;SDS011;1685;53.104;8.228;2023-05-07T14:49:21;7.83;;;7.13;;
3343;SDS011;1685;53.104;8.228;2023-05-07T14:51:48;7.70;;;7.00;;
3343;SDS011;1685;53.104;8.228;2023-05-07T14:54:17;7.80;;;6.70;;
3343;SDS011;1685;53.104;8.228;2023-05-07T14:56:43;10.60;;;6.57;;
3343;SDS011;1685;53.104;8.228;2023-05-07T14:59:10;8.37;;;6.57;;
3343;SDS011;1685;53.104;8.228;2023-05-07T15:01:38;6.30;;;5.80;;
3343;SDS011;1685;53.104;8.228;2023-05-07T15:04:10;6.63;;;6.10;;
3343;SDS011;1685;53.104;8.228;2023-05-07T15:06:37;13.17;;;6.80;;